sensor_id;sensor_type;location;lat;lon;timestamp;pressure;altitude;pressure_sealevel;temperature;humidity
76732;BME280;65656;51.130;13.658;2023-02-15T00:00:53;100875.06;;;0.15;99.69
76732;BME280;65656;51.130;13.658;2023-02-15T00:04:56;100880.03;;;0.19;99.69
76732;BME280;65656;51.130;13.658;2023-02-15T00:08:58;100873.66;;;0.11;99.61
76732;BME280;65656;51.130;13.658;2023-02-15T00:13:00;100879.75;;;0.13;100.00
76732;BME280;65656;51.130;13.658;2023-02-15T00:17:01;100877.38;;;0.10;99.83
76732;BME280;65656;51.130;13.658;2023-02-15T00:21:05;100869.16;;;0.02;100.00
76732;BME280;65656;51.130;13.658;2023-02-15T00:25:07;100865.28;;;0.14;100.00
76732;BME280;65656;51.130;13.658;2023-02-15T00:29:10;100856.19;;;0.15;99.34
76732;BME280;65656;51.130;13.658;2023-02-15T00:33:12;100868.16;;;0.03;99.36
76732;BME280;65656;51.130;13.658;2023-02-15T00:37:14;100861.47;;;0.16;99.73
76732;BME280;65656;51.130;13.658;2023-02-15T00:41:16;100860.88;;;0.13;99.90
76732;BME280;65656;51.130;13.658;2023-02-15T00:45:17;100863.59;;;0.13;99.76
76732;BME280;65656;51.130;13.658;2023-02-15T00:49:19;100852.63;;;0.24;99.18
76732;BME280;65656;51.130;13.658;2023-02-15T00:53:22;100847.09;;;0.25;98.56
76732;BME280;65656;51.130;13.658;2023-02-15T00:57:23;100852.66;;;0.14;98.08
76732;BME280;65656;51.130;13.658;2023-02-15T01:01:25;100849.09;;;0.14;98.44
76732;BME280;65656;51.130;13.658;2023-02-15T01:05:26;100837.91;;;0.18;99.09
76732;BME280;65656;51.130;13.658;2023-02-15T01:09:29;100842.03;;;0.13;98.20
76732;BME280;65656;51.130;13.658;2023-02-15T01:13:31;100843.72;;;0.14;98.60
76732;BME280;65656;51.130;13.658;2023-02-15T01:17:32;100839.31;;;0.13;98.16
76732;BME280;65656;51.130;13.658;2023-02-15T01:21:34;100838.22;;;0.06;98.52
76732;BME280;65656;51.130;13.658;2023-02-15T01:25:37;100840.81;;;-0.03;98.82
76732;BME280;65656;51.130;13.658;2023-02-15T01:29:38;100843.69;;;-0.14;99.34
76732;BME280;65656;51.130;13.658;2023-02-15T01:33:40;100827.97;;;0.19;98.96
76732;BME280;65656;51.130;13.658;2023-02-15T01:37:42;100829.41;;;0.13;98.28
76732;BME280;65656;51.130;13.658;2023-02-15T01:41:44;100820.03;;;0.08;98.92
76732;BME280;65656;51.130;13.658;2023-02-15T01:45:47;100812.97;;;0.07;98.82
76732;BME280;65656;51.130;13.658;2023-02-15T01:49:56;100812.31;;;-0.05;98.33
76732;BME280;65656;51.130;13.658;2023-02-15T01:54:03;100803.09;;;-0.03;98.79
76732;BME280;65656;51.130;13.658;2023-02-15T01:58:08;100788.34;;;0.02;98.83
76732;BME280;65656;51.130;13.658;2023-02-15T02:02:13;100788.38;;;-0.18;98.66
76732;BME280;65656;51.130;13.658;2023-02-15T02:06:16;100773.22;;;-0.19;99.20
76732;BME280;65656;51.130;13.658;2023-02-15T02:10:20;100776.50;;;-0.25;99.61
76732;BME280;65656;51.130;13.658;2023-02-15T02:14:24;100780.41;;;-0.37;99.53
76732;BME280;65656;51.130;13.658;2023-02-15T02:18:38;100779.63;;;-0.20;99.42
76732;BME280;65656;51.130;13.658;2023-02-15T02:23:04;100774.44;;;-0.04;99.20
76732;BME280;65656;51.130;13.658;2023-02-15T02:27:24;100768.53;;;-0.07;98.66
76732;BME280;65656;51.130;13.658;2023-02-15T02:31:56;100771.94;;;-0.15;98.98
76732;BME280;65656;51.130;13.658;2023-02-15T02:36:15;100773.81;;;-0.25;98.82
76732;BME280;65656;51.130;13.658;2023-02-15T02:40:20;100768.91;;;-0.39;99.27
76732;BME280;65656;51.130;13.658;2023-02-15T02:44:25;100755.03;;;-0.44;100.00
76732;BME280;65656;51.130;13.658;2023-02-15T02:48:32;100762.97;;;-0.43;100.00
76732;BME280;65656;51.130;13.658;2023-02-15T02:52:39;100763.13;;;-0.44;100.00
76732;BME280;65656;51.130;13.658;2023-02-15T02:56:43;100758.13;;;-0.39;100.00
76732;BME280;65656;51.130;13.658;2023-02-15T03:00:50;100754.47;;;-0.38;100.00
76732;BME280;65656;51.130;13.658;2023-02-15T03:05:00;100761.53;;;-0.47;99.94
76732;BME280;65656;51.130;13.658;2023-02-15T03:09:08;100759.31;;;-0.51;100.00
76732;BME280;65656;51.130;13.658;2023-02-15T03:13:11;100756.16;;;-0.37;100.00
76732;BME280;65656;51.130;13.658;2023-02-15T03:17:14;100759.28;;;-0.42;100.00
76732;BME280;65656;51.130;13.658;2023-02-15T03:21:17;100767.44;;;-0.24;99.83
76732;BME280;65656;51.130;13.658;2023-02-15T03:25:22;100765.16;;;-0.19;98.93
76732;BME280;65656;51.130;13.658;2023-02-15T03:29:27;100769.16;;;-0.23;99.16
76732;BME280;65656;51.130;13.658;2023-02-15T03:33:29;100756.00;;;0.02;98.01
76732;BME280;65656;51.130;13.658;2023-02-15T03:37:34;100754.69;;;-0.22;98.41
76732;BME280;65656;51.130;13.658;2023-02-15T03:41:40;100746.50;;;-0.30;99.12
76732;BME280;65656;51.130;13.658;2023-02-15T03:45:45;100750.47;;;-0.34;99.50
76732;BME280;65656;51.130;13.658;2023-02-15T03:49:52;100743.38;;;-0.35;99.43
76732;BME280;65656;51.130;13.658;2023-02-15T03:53:55;100745.38;;;-0.37;99.89
76732;BME280;65656;51.130;13.658;2023-02-15T03:58:00;100750.47;;;-0.34;99.22
76732;BME280;65656;51.130;13.658;2023-02-15T04:02:10;100740.53;;;-0.34;99.42
76732;BME280;65656;51.130;13.658;2023-02-15T04:06:16;100743.06;;;-0.32;98.74
76732;BME280;65656;51.130;13.658;2023-02-15T04:10:18;100745.97;;;-0.43;99.26
76732;BME280;65656;51.130;13.658;2023-02-15T04:14:21;100748.53;;;-0.51;99.49
76732;BME280;65656;51.130;13.658;2023-02-15T04:18:22;100744.28;;;-0.44;99.44
76732;BME280;65656;51.130;13.658;2023-02-15T04:22:24;100736.78;;;-0.50;99.25
76732;BME280;65656;51.130;13.658;2023-02-15T04:26:25;100736.94;;;-0.52;99.82
76732;BME280;65656;51.130;13.658;2023-02-15T04:30:28;100732.97;;;-0.58;99.62
76732;BME280;65656;51.130;13.658;2023-02-15T04:34:29;100729.13;;;-0.55;99.25
76732;BME280;65656;51.130;13.658;2023-02-15T04:38:31;100723.63;;;-0.53;99.38
76732;BME280;65656;51.130;13.658;2023-02-15T04:42:32;100727.28;;;-0.54;99.23
76732;BME280;65656;51.130;13.658;2023-02-15T04:46:36;100725.34;;;-0.62;99.38
76732;BME280;65656;51.130;13.658;2023-02-15T04:50:37;100711.13;;;-0.54;99.81
76732;BME280;65656;51.130;13.658;2023-02-15T04:54:39;100715.44;;;-0.62;99.40
76732;BME280;65656;51.130;13.658;2023-02-15T04:58:40;100716.97;;;-0.59;99.62
76732;BME280;65656;51.130;13.658;2023-02-15T05:02:43;100708.06;;;-0.60;98.85
76732;BME280;65656;51.130;13.658;2023-02-15T05:06:45;100705.75;;;-0.54;99.14
76732;BME280;65656;51.130;13.658;2023-02-15T05:10:47;100694.38;;;-0.48;98.17
76732;BME280;65656;51.130;13.658;2023-02-15T05:14:48;100686.91;;;-0.54;98.35
76732;BME280;65656;51.130;13.658;2023-02-15T05:18:51;100681.66;;;-0.56;98.66
76732;BME280;65656;51.130;13.658;2023-02-15T05:22:53;100682.25;;;-0.52;98.93
76732;BME280;65656;51.130;13.658;2023-02-15T05:26:54;100681.03;;;-0.40;98.05
76732;BME280;65656;51.130;13.658;2023-02-15T05:31:02;100686.72;;;-0.43;97.65
76732;BME280;65656;51.130;13.658;2023-02-15T05:35:06;100678.81;;;-0.54;97.56
76732;BME280;65656;51.130;13.658;2023-02-15T05:39:08;100685.50;;;-0.59;98.50
76732;BME280;65656;51.130;13.658;2023-02-15T05:43:09;100685.09;;;-0.64;98.33
76732;BME280;65656;51.130;13.658;2023-02-15T05:47:10;100692.47;;;-0.66;98.49
76732;BME280;65656;51.130;13.658;2023-02-15T05:51:13;100692.16;;;-0.63;98.15
76732;BME280;65656;51.130;13.658;2023-02-15T05:55:15;100698.97;;;-0.59;98.12
76732;BME280;65656;51.130;13.658;2023-02-15T05:59:17;100704.66;;;-0.62;97.97
76732;BME280;65656;51.130;13.658;2023-02-15T06:03:18;100697.88;;;-0.66;97.91
76732;BME280;65656;51.130;13.658;2023-02-15T06:07:21;100686.13;;;-0.74;98.35
76732;BME280;65656;51.130;13.658;2023-02-15T06:11:23;100689.97;;;-0.77;97.94
76732;BME280;65656;51.130;13.658;2023-02-15T06:15:24;100686.28;;;-0.76;98.52
76732;BME280;65656;51.130;13.658;2023-02-15T06:19:26;100691.38;;;-0.73;97.80
76732;BME280;65656;51.130;13.658;2023-02-15T06:23:29;100683.44;;;-0.74;97.86
76732;BME280;65656;51.130;13.658;2023-02-15T06:27:30;100684.59;;;-0.77;98.04
76732;BME280;65656;51.130;13.658;2023-02-15T06:31:32;100688.25;;;-0.78;98.06
76732;BME280;65656;51.130;13.658;2023-02-15T06:35:33;100675.78;;;-0.69;97.52
76732;BME280;65656;51.130;13.658;2023-02-15T06:39:36;100675.34;;;-0.65;97.31
76732;BME280;65656;51.130;13.658;2023-02-15T06:43:38;100676.91;;;-0.62;97.00
76732;BME280;65656;51.130;13.658;2023-02-15T06:47:41;100669.78;;;-0.63;97.12
76732;BME280;65656;51.130;13.658;2023-02-15T06:51:42;100675.75;;;-0.60;96.98
76732;BME280;65656;51.130;13.658;2023-02-15T06:55:45;100674.06;;;-0.61;96.68
76732;BME280;65656;51.130;13.658;2023-02-15T06:59:47;100662.13;;;-0.58;96.56
76732;BME280;65656;51.130;13.658;2023-02-15T07:03:48;100657.28;;;-0.54;96.12
76732;BME280;65656;51.130;13.658;2023-02-15T07:07:50;100662.41;;;-0.51;96.51
76732;BME280;65656;51.130;13.658;2023-02-15T07:11:53;100661.81;;;-0.45;95.67
76732;BME280;65656;51.130;13.658;2023-02-15T07:15:54;100649.34;;;-0.46;95.61
76732;BME280;65656;51.130;13.658;2023-02-15T07:19:56;100643.06;;;-0.37;95.53
76732;BME280;65656;51.130;13.658;2023-02-15T07:23:58;100655.22;;;-0.33;94.70
76732;BME280;65656;51.130;13.658;2023-02-15T07:28:02;100654.31;;;-0.24;94.07
76732;BME280;65656;51.130;13.658;2023-02-15T07:32:04;100656.03;;;-0.23;94.14
76732;BME280;65656;51.130;13.658;2023-02-15T07:36:07;100652.28;;;-0.12;94.09
76732;BME280;65656;51.130;13.658;2023-02-15T07:40:09;100639.97;;;0.03;92.69
76732;BME280;65656;51.130;13.658;2023-02-15T07:44:13;100631.41;;;0.08;91.76
76732;BME280;65656;51.130;13.658;2023-02-15T07:48:14;100635.34;;;0.13;91.75
76732;BME280;65656;51.130;13.658;2023-02-15T07:52:16;100627.75;;;0.26;91.08
76732;BME280;65656;51.130;13.658;2023-02-15T07:56:17;100623.28;;;0.35;91.44
76732;BME280;65656;51.130;13.658;2023-02-15T08:00:21;100613.25;;;0.45;90.37
76732;BME280;65656;51.130;13.658;2023-02-15T08:04:23;100618.41;;;0.57;90.18
76732;BME280;65656;51.130;13.658;2023-02-15T08:08:25;100609.38;;;0.66;88.91
76732;BME280;65656;51.130;13.658;2023-02-15T08:12:27;100612.34;;;0.80;88.50
76732;BME280;65656;51.130;13.658;2023-02-15T08:16:32;100615.63;;;0.92;87.05
76732;BME280;65656;51.130;13.658;2023-02-15T08:20:34;100617.22;;;1.03;86.69
76732;BME280;65656;51.130;13.658;2023-02-15T08:24:36;100611.38;;;1.16;86.66
76732;BME280;65656;51.130;13.658;2023-02-15T08:28:38;100611.06;;;1.19;85.73
76732;BME280;65656;51.130;13.658;2023-02-15T08:32:41;100613.19;;;1.33;86.30
76732;BME280;65656;51.130;13.658;2023-02-15T08:36:43;100614.56;;;1.45;84.02
76732;BME280;65656;51.130;13.658;2023-02-15T08:40:45;100608.06;;;1.64;84.81
76732;BME280;65656;51.130;13.658;2023-02-15T08:44:46;100605.44;;;1.80;83.50
76732;BME280;65656;51.130;13.658;2023-02-15T08:48:52;100611.97;;;1.78;82.96
76732;BME280;65656;51.130;13.658;2023-02-15T08:52:54;100606.59;;;1.86;83.23
76732;BME280;65656;51.130;13.658;2023-02-15T08:56:57;100601.94;;;2.04;81.86
76732;BME280;65656;51.130;13.658;2023-02-15T09:00:58;100601.59;;;2.07;81.32
76732;BME280;65656;51.130;13.658;2023-02-15T09:05:02;100602.44;;;2.24;82.23
76732;BME280;65656;51.130;13.658;2023-02-15T09:09:04;100597.88;;;2.24;81.35
76732;BME280;65656;51.130;13.658;2023-02-15T09:13:06;100597.56;;;2.28;82.54
76732;BME280;65656;51.130;13.658;2023-02-15T09:17:07;100586.41;;;2.47;80.20
76732;BME280;65656;51.130;13.658;2023-02-15T09:21:13;100591.16;;;2.53;80.25
76732;BME280;65656;51.130;13.658;2023-02-15T09:25:15;100588.44;;;2.61;79.97
76732;BME280;65656;51.130;13.658;2023-02-15T09:29:17;100598.59;;;2.67;79.69
76732;BME280;65656;51.130;13.658;2023-02-15T09:33:19;100587.09;;;2.82;79.96
76732;BME280;65656;51.130;13.658;2023-02-15T09:37:22;100581.06;;;3.11;78.43
76732;BME280;65656;51.130;13.658;2023-02-15T09:41:52;100582.63;;;3.13;77.12
76732;BME280;65656;51.130;13.658;2023-02-15T09:46:15;100583.25;;;3.23;77.90
76732;BME280;65656;51.130;13.658;2023-02-15T09:50:24;100582.84;;;3.43;78.24
76732;BME280;65656;51.130;13.658;2023-02-15T09:54:52;100586.84;;;3.55;78.38
76732;BME280;65656;51.130;13.658;2023-02-15T09:59:04;100581.72;;;3.68;76.60
76732;BME280;65656;51.130;13.658;2023-02-15T10:03:33;100576.47;;;3.98;75.85
76732;BME280;65656;51.130;13.658;2023-02-15T10:07:53;100571.06;;;3.98;75.35
76732;BME280;65656;51.130;13.658;2023-02-15T10:12:14;100570.25;;;4.12;74.95
76732;BME280;65656;51.130;13.658;2023-02-15T10:16:24;100563.94;;;4.19;73.48
76732;BME280;65656;51.130;13.658;2023-02-15T10:20:36;100575.28;;;4.23;75.06
76732;BME280;65656;51.130;13.658;2023-02-15T10:24:48;100573.88;;;4.04;75.75
76732;BME280;65656;51.130;13.658;2023-02-15T10:28:57;100563.19;;;4.48;75.18
76732;BME280;65656;51.130;13.658;2023-02-15T10:33:04;100558.56;;;4.72;73.77
76732;BME280;65656;51.130;13.658;2023-02-15T10:37:34;100544.09;;;4.94;73.14
76732;BME280;65656;51.130;13.658;2023-02-15T10:41:45;100534.81;;;5.03;71.98
76732;BME280;65656;51.130;13.658;2023-02-15T10:45:51;100531.75;;;5.07;71.80
76732;BME280;65656;51.130;13.658;2023-02-15T10:50:17;100527.50;;;5.19;71.04
76732;BME280;65656;51.130;13.658;2023-02-15T10:54:28;100533.78;;;5.34;72.14
76732;BME280;65656;51.130;13.658;2023-02-15T10:58:39;100532.53;;;5.51;69.56
76732;BME280;65656;51.130;13.658;2023-02-15T11:03:06;100521.84;;;5.65;71.44
76732;BME280;65656;51.130;13.658;2023-02-15T11:07:16;100519.75;;;5.67;69.06
76732;BME280;65656;51.130;13.658;2023-02-15T11:11:22;100507.75;;;5.76;68.86
76732;BME280;65656;51.130;13.658;2023-02-15T11:15:29;100498.34;;;5.93;68.21
76732;BME280;65656;51.130;13.658;2023-02-15T11:19:35;100493.53;;;6.17;68.89
76732;BME280;65656;51.130;13.658;2023-02-15T11:23:41;100498.09;;;6.09;67.08
76732;BME280;65656;51.130;13.658;2023-02-15T11:27:45;100488.53;;;6.20;67.45
76732;BME280;65656;51.130;13.658;2023-02-15T11:31:51;100490.56;;;6.11;67.54
76732;BME280;65656;51.130;13.658;2023-02-15T11:36:00;100497.03;;;6.10;67.33
76732;BME280;65656;51.130;13.658;2023-02-15T11:40:15;100480.75;;;6.38;67.52
76732;BME280;65656;51.130;13.658;2023-02-15T11:44:21;100474.34;;;6.53;66.45
76732;BME280;65656;51.130;13.658;2023-02-15T11:48:24;100485.94;;;6.61;66.01
76732;BME280;65656;51.130;13.658;2023-02-15T11:52:27;100476.75;;;6.62;67.07
76732;BME280;65656;51.130;13.658;2023-02-15T11:56:31;100471.63;;;6.25;67.93
76732;BME280;65656;51.130;13.658;2023-02-15T12:00:34;100464.56;;;6.58;66.43
76732;BME280;65656;51.130;13.658;2023-02-15T12:04:40;100457.38;;;6.79;67.15
76732;BME280;65656;51.130;13.658;2023-02-15T12:08:50;100456.97;;;6.82;65.21
76732;BME280;65656;51.130;13.658;2023-02-15T12:13:09;100448.41;;;6.85;64.97
76732;BME280;65656;51.130;13.658;2023-02-15T12:17:12;100446.22;;;6.74;63.80
76732;BME280;65656;51.130;13.658;2023-02-15T12:21:23;100447.06;;;6.74;63.60
76732;BME280;65656;51.130;13.658;2023-02-15T12:25:33;100435.41;;;6.87;64.04
76732;BME280;65656;51.130;13.658;2023-02-15T12:29:40;100437.34;;;6.93;65.55
76732;BME280;65656;51.130;13.658;2023-02-15T12:33:43;100430.97;;;7.20;63.57
76732;BME280;65656;51.130;13.658;2023-02-15T12:37:52;100430.53;;;7.23;64.38
76732;BME280;65656;51.130;13.658;2023-02-15T12:42:05;100415.53;;;7.41;63.26
76732;BME280;65656;51.130;13.658;2023-02-15T12:46:21;100418.09;;;7.56;62.96
76732;BME280;65656;51.130;13.658;2023-02-15T12:50:24;100407.19;;;7.75;62.84
76732;BME280;65656;51.130;13.658;2023-02-15T12:54:29;100405.94;;;7.85;61.78
76732;BME280;65656;51.130;13.658;2023-02-15T12:58:34;100402.16;;;7.86;61.92
76732;BME280;65656;51.130;13.658;2023-02-15T13:02:41;100403.03;;;7.79;60.93
76732;BME280;65656;51.130;13.658;2023-02-15T13:06:48;100408.50;;;8.06;61.61
76732;BME280;65656;51.130;13.658;2023-02-15T13:10:54;100410.78;;;8.09;59.72
76732;BME280;65656;51.130;13.658;2023-02-15T13:14:58;100416.06;;;8.10;58.49
76732;BME280;65656;51.130;13.658;2023-02-15T13:19:03;100401.38;;;8.18;58.82
76732;BME280;65656;51.130;13.658;2023-02-15T13:23:22;100403.22;;;9.29;56.94
76732;BME280;65656;51.130;13.658;2023-02-15T13:27:30;100401.09;;;11.24;52.00
76732;BME280;65656;51.130;13.658;2023-02-15T13:31:35;100402.06;;;11.78;49.11
76732;BME280;65656;51.130;13.658;2023-02-15T13:35:40;100393.81;;;12.66;48.55
76732;BME280;65656;51.130;13.658;2023-02-15T13:39:47;100402.91;;;12.78;45.84
76732;BME280;65656;51.130;13.658;2023-02-15T13:43:59;100398.66;;;12.06;47.57
76732;BME280;65656;51.130;13.658;2023-02-15T13:48:14;100406.66;;;11.84;48.42
76732;BME280;65656;51.130;13.658;2023-02-15T13:52:19;100404.31;;;11.02;49.58
76732;BME280;65656;51.130;13.658;2023-02-15T13:56:27;100399.69;;;10.41;51.96
76732;BME280;65656;51.130;13.658;2023-02-15T14:00:38;100399.22;;;8.73;56.92
76732;BME280;65656;51.130;13.658;2023-02-15T14:04:57;100392.28;;;7.58;59.71
76732;BME280;65656;51.130;13.658;2023-02-15T14:09:12;100395.72;;;7.12;60.76
76732;BME280;65656;51.130;13.658;2023-02-15T14:13:40;100388.31;;;6.93;63.20
76732;BME280;65656;51.130;13.658;2023-02-15T14:17:53;100386.31;;;6.74;63.15
76732;BME280;65656;51.130;13.658;2023-02-15T14:22:00;100384.56;;;6.59;63.31
76732;BME280;65656;51.130;13.658;2023-02-15T14:26:06;100377.75;;;6.42;63.91
76732;BME280;65656;51.130;13.658;2023-02-15T14:30:16;100375.59;;;6.31;64.60
76732;BME280;65656;51.130;13.658;2023-02-15T14:34:22;100384.56;;;6.25;65.04
76732;BME280;65656;51.130;13.658;2023-02-15T14:38:38;100378.47;;;6.23;64.87
76732;BME280;65656;51.130;13.658;2023-02-15T14:42:49;100372.94;;;6.09;65.03
76732;BME280;65656;51.130;13.658;2023-02-15T14:46:58;100375.00;;;6.07;64.24
76732;BME280;65656;51.130;13.658;2023-02-15T14:51:04;100378.38;;;5.88;65.65
76732;BME280;65656;51.130;13.658;2023-02-15T14:55:07;100373.06;;;5.80;65.14
76732;BME280;65656;51.130;13.658;2023-02-15T14:59:17;100369.00;;;5.69;66.11
76732;BME280;65656;51.130;13.658;2023-02-15T15:03:23;100374.50;;;5.54;66.16
76732;BME280;65656;51.130;13.658;2023-02-15T15:07:27;100384.47;;;5.47;67.30
76732;BME280;65656;51.130;13.658;2023-02-15T15:11:48;100380.38;;;5.37;66.72
76732;BME280;65656;51.130;13.658;2023-02-15T15:15:52;100389.59;;;5.21;67.07
76732;BME280;65656;51.130;13.658;2023-02-15T15:19:58;100385.72;;;5.09;68.40
76732;BME280;65656;51.130;13.658;2023-02-15T15:24:00;100383.47;;;4.97;69.33
76732;BME280;65656;51.130;13.658;2023-02-15T15:28:03;100374.78;;;4.87;68.60
76732;BME280;65656;51.130;13.658;2023-02-15T15:32:07;100373.97;;;4.72;69.45
76732;BME280;65656;51.130;13.658;2023-02-15T15:36:29;100365.00;;;4.57;69.16
76732;BME280;65656;51.130;13.658;2023-02-15T15:40:42;100364.44;;;4.46;69.84
76732;BME280;65656;51.130;13.658;2023-02-15T15:49:20;100368.72;;;4.26;70.71
76732;BME280;65656;51.130;13.658;2023-02-15T15:53:24;100369.28;;;4.07;70.76
76732;BME280;65656;51.130;13.658;2023-02-15T15:57:28;100368.19;;;3.78;72.49
76732;BME280;65656;51.130;13.658;2023-02-15T16:01:35;100364.59;;;3.63;72.51
76732;BME280;65656;51.130;13.658;2023-02-15T16:05:39;100356.22;;;3.50;73.14
76732;BME280;65656;51.130;13.658;2023-02-15T16:09:41;100359.06;;;3.33;73.61
76732;BME280;65656;51.130;13.658;2023-02-15T16:13:54;100346.97;;;3.21;73.87
76732;BME280;65656;51.130;13.658;2023-02-15T16:17:58;100349.41;;;3.08;74.44
76732;BME280;65656;51.130;13.658;2023-02-15T16:22:02;100342.09;;;2.86;74.92
76732;BME280;65656;51.130;13.658;2023-02-15T16:26:08;100350.97;;;2.71;74.83
76732;BME280;65656;51.130;13.658;2023-02-15T16:30:20;100349.72;;;2.51;76.08
76732;BME280;65656;51.130;13.658;2023-02-15T16:34:25;100348.41;;;2.39;77.06
76732;BME280;65656;51.130;13.658;2023-02-15T16:38:46;100360.31;;;2.13;76.94
76732;BME280;65656;51.130;13.658;2023-02-15T16:43:04;100356.28;;;1.93;78.09
76732;BME280;65656;51.130;13.658;2023-02-15T16:47:14;100351.25;;;1.90;78.46
76732;BME280;65656;51.130;13.658;2023-02-15T16:51:23;100342.63;;;1.86;78.15
76732;BME280;65656;51.130;13.658;2023-02-15T16:55:34;100341.66;;;1.79;78.55
76732;BME280;65656;51.130;13.658;2023-02-15T16:59:39;100339.09;;;1.70;78.83
76732;BME280;65656;51.130;13.658;2023-02-15T17:03:42;100324.94;;;1.59;78.81
76732;BME280;65656;51.130;13.658;2023-02-15T17:07:52;100339.47;;;1.50;79.33
76732;BME280;65656;51.130;13.658;2023-02-15T17:12:04;100343.84;;;1.43;79.63
76732;BME280;65656;51.130;13.658;2023-02-15T17:16:24;100347.56;;;1.26;80.49
76732;BME280;65656;51.130;13.658;2023-02-15T17:20:28;100360.03;;;1.10;81.75
76732;BME280;65656;51.130;13.658;2023-02-15T17:24:37;100357.31;;;1.02;80.65
76732;BME280;65656;51.130;13.658;2023-02-15T17:28:45;100361.31;;;0.90;81.75
76732;BME280;65656;51.130;13.658;2023-02-15T17:32:53;100353.03;;;0.83;82.06
76732;BME280;65656;51.130;13.658;2023-02-15T17:36:58;100348.28;;;0.77;82.28
76732;BME280;65656;51.130;13.658;2023-02-15T17:41:01;100343.75;;;0.78;82.64
76732;BME280;65656;51.130;13.658;2023-02-15T17:45:03;100331.25;;;0.77;82.51
76732;BME280;65656;51.130;13.658;2023-02-15T17:49:05;100339.72;;;0.82;82.36
76732;BME280;65656;51.130;13.658;2023-02-15T17:53:08;100351.50;;;0.73;82.31
76732;BME280;65656;51.130;13.658;2023-02-15T17:57:12;100348.13;;;0.71;82.89
76732;BME280;65656;51.130;13.658;2023-02-15T18:01:17;100352.47;;;0.64;83.27
76732;BME280;65656;51.130;13.658;2023-02-15T18:05:20;100350.41;;;0.49;83.09
76732;BME280;65656;51.130;13.658;2023-02-15T18:09:23;100336.28;;;0.55;83.15
76732;BME280;65656;51.130;13.658;2023-02-15T18:13:25;100340.97;;;0.53;83.33
76732;BME280;65656;51.130;13.658;2023-02-15T18:17:32;100330.16;;;0.53;83.50
76732;BME280;65656;51.130;13.658;2023-02-15T18:21:34;100325.13;;;0.50;83.83
76732;BME280;65656;51.130;13.658;2023-02-15T18:25:36;100324.91;;;0.44;83.63
76732;BME280;65656;51.130;13.658;2023-02-15T18:29:39;100331.69;;;0.48;84.01
76732;BME280;65656;51.130;13.658;2023-02-15T18:33:43;100334.84;;;0.43;83.86
76732;BME280;65656;51.130;13.658;2023-02-15T18:37:46;100328.78;;;0.41;84.48
76732;BME280;65656;51.130;13.658;2023-02-15T18:41:47;100330.09;;;0.37;84.62
76732;BME280;65656;51.130;13.658;2023-02-15T18:45:50;100339.00;;;0.30;85.22
76732;BME280;65656;51.130;13.658;2023-02-15T18:49:52;100331.44;;;0.25;85.19
76732;BME280;65656;51.130;13.658;2023-02-15T18:53:53;100332.72;;;0.21;85.77
76732;BME280;65656;51.130;13.658;2023-02-15T18:57:55;100346.53;;;0.18;86.09
76732;BME280;65656;51.130;13.658;2023-02-15T19:01:58;100342.13;;;0.09;86.76
76732;BME280;65656;51.130;13.658;2023-02-15T19:06:00;100347.34;;;0.10;85.81
76732;BME280;65656;51.130;13.658;2023-02-15T19:10:04;100341.28;;;0.08;85.63
76732;BME280;65656;51.130;13.658;2023-02-15T19:14:12;100335.31;;;-0.04;86.49
76732;BME280;65656;51.130;13.658;2023-02-15T19:18:21;100340.31;;;-0.09;86.81
76732;BME280;65656;51.130;13.658;2023-02-15T19:22:26;100333.25;;;-0.10;87.35
76732;BME280;65656;51.130;13.658;2023-02-15T19:26:27;100336.31;;;-0.05;86.54
76732;BME280;65656;51.130;13.658;2023-02-15T19:30:45;100330.72;;;-0.11;86.70
76732;BME280;65656;51.130;13.658;2023-02-15T19:34:48;100321.13;;;-0.14;87.63
76732;BME280;65656;51.130;13.658;2023-02-15T19:38:51;100324.06;;;-0.25;87.25
76732;BME280;65656;51.130;13.658;2023-02-15T19:42:54;100324.81;;;-0.15;87.84
76732;BME280;65656;51.130;13.658;2023-02-15T19:46:56;100308.00;;;-0.09;87.79
76732;BME280;65656;51.130;13.658;2023-02-15T19:50:59;100299.22;;;-0.11;87.24
76732;BME280;65656;51.130;13.658;2023-02-15T19:55:00;100289.84;;;-0.07;86.52
76732;BME280;65656;51.130;13.658;2023-02-15T19:59:02;100293.13;;;-0.21;86.98
76732;BME280;65656;51.130;13.658;2023-02-15T20:03:03;100291.66;;;-0.15;87.33
76732;BME280;65656;51.130;13.658;2023-02-15T20:07:15;100285.75;;;-0.11;87.00
76732;BME280;65656;51.130;13.658;2023-02-15T20:11:20;100275.31;;;-0.14;87.16
76732;BME280;65656;51.130;13.658;2023-02-15T20:15:23;100278.66;;;-0.20;86.79
76732;BME280;65656;51.130;13.658;2023-02-15T20:19:25;100273.06;;;-0.26;87.48
76732;BME280;65656;51.130;13.658;2023-02-15T20:23:30;100273.22;;;-0.28;87.21
76732;BME280;65656;51.130;13.658;2023-02-15T20:27:32;100265.31;;;-0.30;87.45
76732;BME280;65656;51.130;13.658;2023-02-15T20:31:34;100272.22;;;-0.27;86.51
76732;BME280;65656;51.130;13.658;2023-02-15T20:35:36;100276.97;;;-0.21;86.36
76732;BME280;65656;51.130;13.658;2023-02-15T20:39:39;100268.84;;;-0.29;86.90
76732;BME280;65656;51.130;13.658;2023-02-15T20:43:41;100263.44;;;-0.29;87.30
76732;BME280;65656;51.130;13.658;2023-02-15T20:47:42;100267.63;;;-0.35;86.70
76732;BME280;65656;51.130;13.658;2023-02-15T20:51:44;100262.81;;;-0.23;86.48
76732;BME280;65656;51.130;13.658;2023-02-15T20:55:47;100268.94;;;-0.13;86.36
76732;BME280;65656;51.130;13.658;2023-02-15T20:59:48;100282.34;;;-0.21;85.93
76732;BME280;65656;51.130;13.658;2023-02-15T21:03:50;100272.72;;;-0.23;86.08
76732;BME280;65656;51.130;13.658;2023-02-15T21:07:52;100266.50;;;-0.24;86.42
76732;BME280;65656;51.130;13.658;2023-02-15T21:11:57;100270.41;;;-0.18;85.84
76732;BME280;65656;51.130;13.658;2023-02-15T21:16:00;100259.13;;;-0.22;86.67
76732;BME280;65656;51.130;13.658;2023-02-15T21:20:01;100259.31;;;-0.15;86.07